Franconia — 3FWI7 — position and weather

sailwx.info

Track history (hours):
 
Tides and Currents Weather Stations Pressure Air Temp Water Temp Dewpoint Dewpoint Depression Visibility Wind Speed Wind Dir Waves Ship Positions

Franconia

Last reported at 2017-Sep-24 02:55 UTC. Time now 2017-Sep-24 19:30 UTC.
Position N 41°00' E 017°52'.

Type: Cargo ship. MMSI: 351732000.

Date/timePositionNaut miles runAvg speedWind from/ knotsBaromVisibWave heightAir tempDewpointWater temp
2017-Sep-24 02:55N 41°00' E 017°52'814.1
2017-Sep-24 02:20N 40°54' E 017°59'1114.1
2017-Sep-24 01:34N 40°47' E 018°09'513.9
2017-Sep-24 01:13N 40°43' E 018°14'413.8
2017-Sep-24 00:57N 40°40' E 018°17'913.8
2017-Sep-24 00:17N 40°34' E 018°25'413.9
2017-Sep-23 23:58N 40°31' E 018°30'814.1
2017-Sep-23 23:22N 40°24' E 018°37'275 6.1
2017-Sep-22 01:56N 37°57' E 023°36'0 0.0
2017-Sep-22 01:29N 37°57' E 023°36'0 0.0
2017-Sep-22 00:59N 37°57' E 023°36'0 0.0
2017-Sep-22 00:29N 37°57' E 023°36'0 0.0
2017-Sep-21 23:59N 37°57' E 023°36'0 0.0
2017-Sep-21 23:29N 37°57' E 023°36'0 0.0
2017-Sep-21 22:59N 37°57' E 023°36'0 0.0
2017-Sep-21 22:29N 37°57' E 023°36'0 0.0
2017-Sep-21 21:56N 37°57' E 023°36'0 0.0
2017-Sep-21 21:29N 37°57' E 023°36'0 0.0
2017-Sep-21 20:59N 37°57' E 023°36'0 0.0
2017-Sep-21 20:30N 37°57' E 023°36'2 3.3
2017-Sep-21 20:01N 37°55' E 023°37'2 3.9
2017-Sep-21 19:31N 37°54' E 023°37'1 2.7
2017-Sep-21 19:00N 37°53' E 023°35'510.3
2017-Sep-21 18:30N 37°48' E 023°35'3 5.6
2017-Sep-21 18:00N 37°45' E 023°34'0 0.2
2017-Sep-21 17:30N 37°45' E 023°34'0 0.1
2017-Sep-21 17:00N 37°45' E 023°34'0 0.1
2017-Sep-21 16:30N 37°45' E 023°34'0 0.0
2017-Sep-21 16:00N 37°45' E 023°34'0 0.0
2017-Sep-21 15:30N 37°45' E 023°34'0 0.0
2017-Sep-21 15:00N 37°45' E 023°34'0 0.0
2017-Sep-21 14:30N 37°45' E 023°34'0 0.0
2017-Sep-21 14:00N 37°45' E 023°34'0 0.1
2017-Sep-21 13:30N 37°45' E 023°34'0 0.1
2017-Sep-21 13:00N 37°45' E 023°34'0 0.1
2017-Sep-21 12:30N 37°45' E 023°34'0 0.1
2017-Sep-21 12:00N 37°45' E 023°34'0 0.0
2017-Sep-21 11:30N 37°45' E 023°34'0 0.1
2017-Sep-21 11:00N 37°45' E 023°34'0 0.0
2017-Sep-21 10:30N 37°45' E 023°34'0 0.1
2017-Sep-21 10:00N 37°45' E 023°34'0 0.2
2017-Sep-21 09:30N 37°45' E 023°34'0 0.0
2017-Sep-21 09:00N 37°45' E 023°34'0 0.1
2017-Sep-21 08:24N 37°45' E 023°34'0 0.1
2017-Sep-21 08:00N 37°45' E 023°34'0 0.1
2017-Sep-21 07:30N 37°45' E 023°34'0 0.1
2017-Sep-21 06:57N 37°45' E 023°34'2 4.2
2017-Sep-21 06:31N 37°43' E 023°33'1 1.8
2017-Sep-21 06:00N 37°43' E 023°34'3 7.0
2017-Sep-21 05:31N 37°46' E 023°35'510.2
2017-Sep-21 05:01N 37°51' E 023°35'4 8.1
2017-Sep-21 04:31N 37°50' E 023°39'612.7
2017-Sep-21 04:01N 37°44' E 023°43'612.5
2017-Sep-21 03:31N 37°39' E 023°48'713.0
2017-Sep-21 03:00N 37°37' E 023°56'1712.3
2017-Sep-21 01:39N 37°44' E 024°16'813.1
2017-Sep-21 01:03N 37°49' E 024°23'14613.3
2017-Sep-20 14:00N 39°57' E 025°55'1212.2
2017-Sep-20 13:03N 40°02' E 026°09'113.6
2017-Sep-20 12:59N 40°02' E 026°10'105 3.2
2017-Sep-19 04:45N 40°42' E 028°17'1 2.2
2017-Sep-19 04:20N 40°43' E 028°16'2 1.2
2017-Sep-19 03:02N 40°42' E 028°17'0 1.3
2017-Sep-19 03:00N 40°42' E 028°17'1 1.3
2017-Sep-19 02:30N 40°42' E 028°18'1 1.2
2017-Sep-19 02:00N 40°41' E 028°19'1 1.1
2017-Sep-19 01:30N 40°41' E 028°20'0 1.0
2017-Sep-19 01:00N 40°42' E 028°20'0 0.9
2017-Sep-19 00:30N 40°42' E 028°21'0 1.0
2017-Sep-19 00:00N 40°42' E 028°21'1 0.9
2017-Sep-18 23:13N 40°43' E 028°22'0 0.8
2017-Sep-18 22:53N 40°43' E 028°21'4 8.8
2017-Sep-18 22:28N 40°43' E 028°16'613.3
2017-Sep-18 21:59N 40°43' E 028°08'6513.0
2017-Sep-18 16:58N 40°26' E 026°45'2112.9
2017-Sep-18 15:22N 40°12' E 026°25'1113.4
2017-Sep-18 14:30N 40°02' E 026°17'13 9.6
2017-Sep-18 13:08N 39°58' E 026°01'3 9.7
2017-Sep-18 12:48N 39°56' E 025°58'412.8
2017-Sep-18 12:31N 39°53' E 025°54'713.2
2017-Sep-18 12:00N 39°48' E 025°49'913.9
2017-Sep-18 11:20N 39°40' E 025°44'3414.4
2017-Sep-18 08:59N 39°10' E 025°24'814.4
2017-Sep-18 08:28N 39°03' E 025°20'1514.7
2017-Sep-18 07:26N 38°49' E 025°12'1014.8
2017-Sep-18 06:47N 38°41' E 025°05'5214.9
2017-Sep-18 03:17N 37°55' E 024°34'1615.4
2017-Sep-18 02:15N 37°44' E 024°20'1115.5
2017-Sep-18 01:34N 37°35' E 024°11'215.2
2017-Sep-18 01:25N 37°34' E 024°10'615.0
2017-Sep-18 01:01N 37°28' E 024°06'815.0
2017-Sep-18 00:30N 37°21' E 024°02'815.7
2017-Sep-18 00:00N 37°15' E 023°56'815.8
2017-Sep-17 23:31N 37°09' E 023°50'815.6
2017-Sep-17 23:00N 37°02' E 023°45'815.5
2017-Sep-17 22:30N 36°56' E 023°40'815.4
2017-Sep-17 21:59N 36°49' E 023°34'6913.8
2017-Sep-17 16:59N 36°21' E 022°16'815.9
2017-Sep-17 16:31N 36°21' E 022°07'815.9
2017-Sep-17 16:01N 36°21' E 021°57'816.4
2017-Sep-17 15:30N 36°21' E 021°47'816.5
2017-Sep-17 15:01N 36°22' E 021°37'816.4
2017-Sep-17 14:31N 36°22' E 021°26'816.2
2017-Sep-17 14:01N 36°22' E 021°16'816.0
2017-Sep-17 13:31N 36°22' E 021°06'815.8
2017-Sep-17 13:01N 36°22' E 020°57'815.8
2017-Sep-17 12:30N 36°23' E 020°47'915.7
2017-Sep-17 11:55N 36°23' E 020°35'715.9
2017-Sep-17 11:30N 36°23' E 020°27'816.0
2017-Sep-17 11:00N 36°23' E 020°17'815.8
2017-Sep-17 10:31N 36°23' E 020°07'815.9
2017-Sep-17 10:00N 36°23' E 019°57'916.1
2017-Sep-17 09:26N 36°24' E 019°46'716.1
2017-Sep-17 09:01N 36°24' E 019°37'816.0
2017-Sep-17 08:31N 36°24' E 019°28'815.9
2017-Sep-17 08:01N 36°24' E 019°18'815.8
2017-Sep-17 07:31N 36°24' E 019°08'815.6
2017-Sep-17 07:00N 36°24' E 018°58'815.5
2017-Sep-17 06:30N 36°24' E 018°49'815.6
2017-Sep-17 06:01N 36°25' E 018°39'815.7
2017-Sep-17 05:31N 36°25' E 018°29'815.7
2017-Sep-17 05:01N 36°25' E 018°19'815.9
2017-Sep-17 04:30N 36°25' E 018°10'815.7
2017-Sep-17 04:01N 36°25' E 017°60'815.4
2017-Sep-17 03:30N 36°25' E 017°50'815.4
2017-Sep-17 03:00N 36°25' E 017°41'815.4
2017-Sep-17 02:31N 36°25' E 017°31'815.4
2017-Sep-17 02:01N 36°26' E 017°22'815.4
2017-Sep-17 01:31N 36°26' E 017°12'815.6
2017-Sep-17 01:00N 36°26' E 017°02'815.6
2017-Sep-17 00:30N 36°26' E 016°53'815.6
2017-Sep-17 00:00N 36°26' E 016°43'815.6
2017-Sep-16 23:30N 36°26' E 016°33'815.5
2017-Sep-16 23:00N 36°26' E 016°24'815.4
2017-Sep-16 22:31N 36°27' E 016°14'815.3
2017-Sep-16 22:00N 36°27' E 016°04'815.2
2017-Sep-16 21:30N 36°27' E 015°55'815.0
2017-Sep-16 21:00N 36°27' E 015°46'915.1
2017-Sep-16 20:25N 36°27' E 015°35'615.1
2017-Sep-16 20:00N 36°27' E 015°27'815.4
2017-Sep-16 19:30N 36°27' E 015°17'916.4
2017-Sep-16 18:56N 36°28' E 015°06'716.5
2017-Sep-16 18:30N 36°28' E 014°57'816.2
2017-Sep-16 18:00N 36°28' E 014°47'816.3
2017-Sep-16 17:30N 36°28' E 014°37'815.9
2017-Sep-16 17:00N 36°30' E 014°27'816.0
2017-Sep-16 16:30N 36°32' E 014°17'816.3
2017-Sep-16 16:00N 36°34' E 014°07'815.9
2017-Sep-16 15:30N 36°36' E 013°58'815.7
2017-Sep-16 15:00N 36°38' E 013°48'815.8
2017-Sep-16 14:30N 36°39' E 013°39'815.8
2017-Sep-16 14:00N 36°41' E 013°29'815.6
2017-Sep-16 13:31N 36°43' E 013°20'815.2
2017-Sep-16 13:00N 36°45' E 013°11'814.9
2017-Sep-16 12:30N 36°47' E 013°02'715.0
2017-Sep-16 12:00N 36°49' E 012°53'714.9
2017-Sep-16 11:30N 36°51' E 012°44'714.9
2017-Sep-16 11:00N 36°53' E 012°35'715.0
2017-Sep-16 10:30N 36°55' E 012°25'815.2
2017-Sep-16 10:00N 36°57' E 012°16'814.9
2017-Sep-16 09:30N 36°59' E 012°07'815.3
2017-Sep-16 09:00N 37°01' E 011°58'815.1
2017-Sep-16 08:30N 37°05' E 011°50'815.3
2017-Sep-16 08:00N 37°09' E 011°41'715.2
2017-Sep-16 07:30N 37°12' E 011°33'5515.2
2017-Sep-16 03:55N 37°32' E 010°29'716.6
2017-Sep-16 03:30N 37°34' E 010°21'816.4
2017-Sep-16 03:00N 37°34' E 010°11'816.2
2017-Sep-16 02:30N 37°34' E 010°00'816.0
2017-Sep-16 02:00N 37°37' E 009°51'816.0
2017-Sep-16 01:30N 37°40' E 009°42'815.9
2017-Sep-16 01:00N 37°43' E 009°32'3715.6
2017-Sep-15 22:38N 37°56' E 008°49'315.5
2017-Sep-15 22:27N 37°57' E 008°45'715.5
2017-Sep-15 22:00N 37°58' E 008°37'23814.5
2017-Sep-15 05:32N 38°54' E 003°41'113.5
2017-Sep-15 05:27N 38°54' E 003°39'613.1
2017-Sep-15 05:00N 38°55' E 003°32'713.1
2017-Sep-15 04:30N 38°57' E 003°24'613.0
2017-Sep-15 04:01N 38°58' E 003°16'713.0
2017-Sep-15 03:30N 38°60' E 003°08'713.0
2017-Sep-15 03:00N 39°01' E 002°59'612.8
2017-Sep-15 02:30N 39°03' E 002°51'612.7
2017-Sep-15 02:00N 39°04' E 002°43'612.7
2017-Sep-15 01:30N 39°06' E 002°35'612.7
2017-Sep-15 01:00N 39°07' E 002°27'612.6
2017-Sep-15 00:30N 39°09' E 002°19'612.5
2017-Sep-15 00:01N 39°11' E 002°12'612.8
2017-Sep-14 23:31N 39°12' E 002°04'713.2
2017-Sep-14 23:00N 39°13' E 001°55'713.9
2017-Sep-14 22:30N 39°15' E 001°47'714.7
2017-Sep-14 22:01N 39°16' E 001°37'814.8
2017-Sep-14 21:28N 39°18' E 001°27'714.7
2017-Sep-14 21:00N 39°20' E 001°19'2114.5
2017-Sep-14 19:34N 39°25' E 000°53'414.9
2017-Sep-14 19:18N 39°26' E 000°48'514.5
2017-Sep-14 18:58N 39°27' E 000°42'  
Track history (hours):
 
Tides and Currents Weather Stations Pressure Air Temp Water Temp Dewpoint Dewpoint Depression Visibility Wind Speed Wind Dir Waves Ship Positions

Franconia

Last reported at 2017-Sep-24 02:55 UTC. Time now 2017-Sep-24 19:30 UTC.
Position N 41°00' E 017°52'.

Type: Cargo ship. MMSI: 351732000.

Date/timePositionNaut miles runAvg speedWind from/ knotsBaromVisibWave heightAir tempDewpointWater temp
2017-Sep-24 02:55N 41°00' E 017°52'814.1
2017-Sep-24 02:20N 40°54' E 017°59'1114.1
2017-Sep-24 01:34N 40°47' E 018°09'513.9
2017-Sep-24 01:13N 40°43' E 018°14'413.8
2017-Sep-24 00:57N 40°40' E 018°17'913.8
2017-Sep-24 00:17N 40°34' E 018°25'413.9
2017-Sep-23 23:58N 40°31' E 018°30'814.1
2017-Sep-23 23:22N 40°24' E 018°37'275 6.1
2017-Sep-22 01:56N 37°57' E 023°36'0 0.0
2017-Sep-22 01:29N 37°57' E 023°36'0 0.0
2017-Sep-22 00:59N 37°57' E 023°36'0 0.0
2017-Sep-22 00:29N 37°57' E 023°36'0 0.0
2017-Sep-21 23:59N 37°57' E 023°36'0 0.0
2017-Sep-21 23:29N 37°57' E 023°36'0 0.0
2017-Sep-21 22:59N 37°57' E 023°36'0 0.0
2017-Sep-21 22:29N 37°57' E 023°36'0 0.0
2017-Sep-21 21:56N 37°57' E 023°36'0 0.0
2017-Sep-21 21:29N 37°57' E 023°36'0 0.0
2017-Sep-21 20:59N 37°57' E 023°36'0 0.0
2017-Sep-21 20:30N 37°57' E 023°36'2 3.3
2017-Sep-21 20:01N 37°55' E 023°37'2 3.9
2017-Sep-21 19:31N 37°54' E 023°37'1 2.7
2017-Sep-21 19:00N 37°53' E 023°35'510.3
2017-Sep-21 18:30N 37°48' E 023°35'3 5.6
2017-Sep-21 18:00N 37°45' E 023°34'0 0.2
2017-Sep-21 17:30N 37°45' E 023°34'0 0.1
2017-Sep-21 17:00N 37°45' E 023°34'0 0.1
2017-Sep-21 16:30N 37°45' E 023°34'0 0.0
2017-Sep-21 16:00N 37°45' E 023°34'0 0.0
2017-Sep-21 15:30N 37°45' E 023°34'0 0.0
2017-Sep-21 15:00N 37°45' E 023°34'0 0.0
2017-Sep-21 14:30N 37°45' E 023°34'0 0.0
2017-Sep-21 14:00N 37°45' E 023°34'0 0.1
2017-Sep-21 13:30N 37°45' E 023°34'0 0.1
2017-Sep-21 13:00N 37°45' E 023°34'0 0.1
2017-Sep-21 12:30N 37°45' E 023°34'0 0.1
2017-Sep-21 12:00N 37°45' E 023°34'0 0.0
2017-Sep-21 11:30N 37°45' E 023°34'0 0.1
2017-Sep-21 11:00N 37°45' E 023°34'0 0.0
2017-Sep-21 10:30N 37°45' E 023°34'0 0.1
2017-Sep-21 10:00N 37°45' E 023°34'0 0.2
2017-Sep-21 09:30N 37°45' E 023°34'0 0.0
2017-Sep-21 09:00N 37°45' E 023°34'0 0.1
2017-Sep-21 08:24N 37°45' E 023°34'0 0.1
2017-Sep-21 08:00N 37°45' E 023°34'0 0.1
2017-Sep-21 07:30N 37°45' E 023°34'0 0.1
2017-Sep-21 06:57N 37°45' E 023°34'2 4.2
2017-Sep-21 06:31N 37°43' E 023°33'1 1.8
2017-Sep-21 06:00N 37°43' E 023°34'3 7.0
2017-Sep-21 05:31N 37°46' E 023°35'510.2
2017-Sep-21 05:01N 37°51' E 023°35'4 8.1
2017-Sep-21 04:31N 37°50' E 023°39'612.7
2017-Sep-21 04:01N 37°44' E 023°43'612.5
2017-Sep-21 03:31N 37°39' E 023°48'713.0
2017-Sep-21 03:00N 37°37' E 023°56'1712.3
2017-Sep-21 01:39N 37°44' E 024°16'813.1
2017-Sep-21 01:03N 37°49' E 024°23'14613.3
2017-Sep-20 14:00N 39°57' E 025°55'1212.2
2017-Sep-20 13:03N 40°02' E 026°09'113.6
2017-Sep-20 12:59N 40°02' E 026°10'105 3.2
2017-Sep-19 04:45N 40°42' E 028°17'1 2.2
2017-Sep-19 04:20N 40°43' E 028°16'2 1.2
2017-Sep-19 03:02N 40°42' E 028°17'0 1.3
2017-Sep-19 03:00N 40°42' E 028°17'1 1.3
2017-Sep-19 02:30N 40°42' E 028°18'1 1.2
2017-Sep-19 02:00N 40°41' E 028°19'1 1.1
2017-Sep-19 01:30N 40°41' E 028°20'0 1.0
2017-Sep-19 01:00N 40°42' E 028°20'0 0.9
2017-Sep-19 00:30N 40°42' E 028°21'0 1.0
2017-Sep-19 00:00N 40°42' E 028°21'1 0.9
2017-Sep-18 23:13N 40°43' E 028°22'0 0.8
2017-Sep-18 22:53N 40°43' E 028°21'4 8.8
2017-Sep-18 22:28N 40°43' E 028°16'613.3
2017-Sep-18 21:59N 40°43' E 028°08'6513.0
2017-Sep-18 16:58N 40°26' E 026°45'2112.9
2017-Sep-18 15:22N 40°12' E 026°25'1113.4
2017-Sep-18 14:30N 40°02' E 026°17'13 9.6
2017-Sep-18 13:08N 39°58' E 026°01'3 9.7
2017-Sep-18 12:48N 39°56' E 025°58'412.8
2017-Sep-18 12:31N 39°53' E 025°54'713.2
2017-Sep-18 12:00N 39°48' E 025°49'913.9
2017-Sep-18 11:20N 39°40' E 025°44'3414.4
2017-Sep-18 08:59N 39°10' E 025°24'814.4
2017-Sep-18 08:28N 39°03' E 025°20'1514.7
2017-Sep-18 07:26N 38°49' E 025°12'1014.8
2017-Sep-18 06:47N 38°41' E 025°05'5214.9
2017-Sep-18 03:17N 37°55' E 024°34'1615.4
2017-Sep-18 02:15N 37°44' E 024°20'1115.5
2017-Sep-18 01:34N 37°35' E 024°11'215.2
2017-Sep-18 01:25N 37°34' E 024°10'615.0
2017-Sep-18 01:01N 37°28' E 024°06'815.0
2017-Sep-18 00:30N 37°21' E 024°02'815.7
2017-Sep-18 00:00N 37°15' E 023°56'815.8
2017-Sep-17 23:31N 37°09' E 023°50'815.6
2017-Sep-17 23:00N 37°02' E 023°45'815.5
2017-Sep-17 22:30N 36°56' E 023°40'815.4
2017-Sep-17 21:59N 36°49' E 023°34'6913.8
2017-Sep-17 16:59N 36°21' E 022°16'815.9
2017-Sep-17 16:31N 36°21' E 022°07'815.9
2017-Sep-17 16:01N 36°21' E 021°57'816.4
2017-Sep-17 15:30N 36°21' E 021°47'816.5
2017-Sep-17 15:01N 36°22' E 021°37'816.4
2017-Sep-17 14:31N 36°22' E 021°26'816.2
2017-Sep-17 14:01N 36°22' E 021°16'816.0
2017-Sep-17 13:31N 36°22' E 021°06'815.8
2017-Sep-17 13:01N 36°22' E 020°57'815.8
2017-Sep-17 12:30N 36°23' E 020°47'915.7
2017-Sep-17 11:55N 36°23' E 020°35'715.9
2017-Sep-17 11:30N 36°23' E 020°27'816.0
2017-Sep-17 11:00N 36°23' E 020°17'815.8
2017-Sep-17 10:31N 36°23' E 020°07'815.9
2017-Sep-17 10:00N 36°23' E 019°57'916.1
2017-Sep-17 09:26N 36°24' E 019°46'716.1
2017-Sep-17 09:01N 36°24' E 019°37'816.0
2017-Sep-17 08:31N 36°24' E 019°28'815.9
2017-Sep-17 08:01N 36°24' E 019°18'815.8
2017-Sep-17 07:31N 36°24' E 019°08'815.6
2017-Sep-17 07:00N 36°24' E 018°58'815.5
2017-Sep-17 06:30N 36°24' E 018°49'815.6
2017-Sep-17 06:01N 36°25' E 018°39'815.7
2017-Sep-17 05:31N 36°25' E 018°29'815.7
2017-Sep-17 05:01N 36°25' E 018°19'815.9
2017-Sep-17 04:30N 36°25' E 018°10'815.7
2017-Sep-17 04:01N 36°25' E 017°60'815.4
2017-Sep-17 03:30N 36°25' E 017°50'815.4
2017-Sep-17 03:00N 36°25' E 017°41'815.4
2017-Sep-17 02:31N 36°25' E 017°31'815.4
2017-Sep-17 02:01N 36°26' E 017°22'815.4
2017-Sep-17 01:31N 36°26' E 017°12'815.6
2017-Sep-17 01:00N 36°26' E 017°02'815.6
2017-Sep-17 00:30N 36°26' E 016°53'815.6
2017-Sep-17 00:00N 36°26' E 016°43'815.6
2017-Sep-16 23:30N 36°26' E 016°33'815.5
2017-Sep-16 23:00N 36°26' E 016°24'815.4
2017-Sep-16 22:31N 36°27' E 016°14'815.3
2017-Sep-16 22:00N 36°27' E 016°04'815.2
2017-Sep-16 21:30N 36°27' E 015°55'815.0
2017-Sep-16 21:00N 36°27' E 015°46'915.1
2017-Sep-16 20:25N 36°27' E 015°35'615.1
2017-Sep-16 20:00N 36°27' E 015°27'815.4
2017-Sep-16 19:30N 36°27' E 015°17'916.4
2017-Sep-16 18:56N 36°28' E 015°06'716.5
2017-Sep-16 18:30N 36°28' E 014°57'816.2
2017-Sep-16 18:00N 36°28' E 014°47'816.3
2017-Sep-16 17:30N 36°28' E 014°37'815.9
2017-Sep-16 17:00N 36°30' E 014°27'816.0
2017-Sep-16 16:30N 36°32' E 014°17'816.3
2017-Sep-16 16:00N 36°34' E 014°07'815.9
2017-Sep-16 15:30N 36°36' E 013°58'815.7
2017-Sep-16 15:00N 36°38' E 013°48'815.8
2017-Sep-16 14:30N 36°39' E 013°39'815.8
2017-Sep-16 14:00N 36°41' E 013°29'815.6
2017-Sep-16 13:31N 36°43' E 013°20'815.2
2017-Sep-16 13:00N 36°45' E 013°11'814.9
2017-Sep-16 12:30N 36°47' E 013°02'715.0
2017-Sep-16 12:00N 36°49' E 012°53'714.9
2017-Sep-16 11:30N 36°51' E 012°44'714.9
2017-Sep-16 11:00N 36°53' E 012°35'715.0
2017-Sep-16 10:30N 36°55' E 012°25'815.2
2017-Sep-16 10:00N 36°57' E 012°16'814.9
2017-Sep-16 09:30N 36°59' E 012°07'815.3
2017-Sep-16 09:00N 37°01' E 011°58'815.1
2017-Sep-16 08:30N 37°05' E 011°50'815.3
2017-Sep-16 08:00N 37°09' E 011°41'715.2
2017-Sep-16 07:30N 37°12' E 011°33'5515.2
2017-Sep-16 03:55N 37°32' E 010°29'716.6
2017-Sep-16 03:30N 37°34' E 010°21'816.4
2017-Sep-16 03:00N 37°34' E 010°11'816.2
2017-Sep-16 02:30N 37°34' E 010°00'816.0
2017-Sep-16 02:00N 37°37' E 009°51'816.0
2017-Sep-16 01:30N 37°40' E 009°42'815.9
2017-Sep-16 01:00N 37°43' E 009°32'3715.6
2017-Sep-15 22:38N 37°56' E 008°49'315.5
2017-Sep-15 22:27N 37°57' E 008°45'715.5
2017-Sep-15 22:00N 37°58' E 008°37'23814.5
2017-Sep-15 05:32N 38°54' E 003°41'113.5
2017-Sep-15 05:27N 38°54' E 003°39'613.1
2017-Sep-15 05:00N 38°55' E 003°32'713.1
2017-Sep-15 04:30N 38°57' E 003°24'613.0
2017-Sep-15 04:01N 38°58' E 003°16'713.0
2017-Sep-15 03:30N 38°60' E 003°08'713.0
2017-Sep-15 03:00N 39°01' E 002°59'612.8
2017-Sep-15 02:30N 39°03' E 002°51'612.7
2017-Sep-15 02:00N 39°04' E 002°43'612.7
2017-Sep-15 01:30N 39°06' E 002°35'612.7
2017-Sep-15 01:00N 39°07' E 002°27'612.6
2017-Sep-15 00:30N 39°09' E 002°19'612.5
2017-Sep-15 00:01N 39°11' E 002°12'612.8
2017-Sep-14 23:31N 39°12' E 002°04'713.2
2017-Sep-14 23:00N 39°13' E 001°55'713.9
2017-Sep-14 22:30N 39°15' E 001°47'714.7
2017-Sep-14 22:01N 39°16' E 001°37'814.8
2017-Sep-14 21:28N 39°18' E 001°27'714.7
2017-Sep-14 21:00N 39°20' E 001°19'2114.5
2017-Sep-14 19:34N 39°25' E 000°53'414.9
2017-Sep-14 19:18N 39°26' E 000°48'514.5
2017-Sep-14 18:58N 39°27' E 000°42'  

Dump ship's entire track history